KMWL/MWL METAR and TAF weather

Enter ICAO airport designator
Station Type Date Time Source
KMWL METAR 2022/09/26 08:53 UTC NOAA

KMWL 260853Z AUTO 02009KT 10SM CLR 22/07 A3008 RMK AO2 SLP169 T02170072 53004


Station Type Date Time Source
KMWL Decoded METAR 2022/09/26 08:53 UTC NOAA

MINERAL WELLS AIRPORT, TX, United States (KMWL) 32-47N 098-04W 284M
Sep 26, 2022 - 04:53 AM EDT / 2022.09.26 0853 UTC
Wind: from the NNE (020 degrees) at 10 MPH (9 KT):0
Visibility: 10 mile(s):0
Sky conditions: clear
Temperature: 71.1 F (21.7 C)
Dew Point: 45.0 F (7.2 C)
Relative Humidity: 39%
Pressure (altimeter): 30.08 in. Hg (1018 hPa)
Pressure tendency: 0.01 inches (0.4 hPa) higher than three hours ago
ob: KMWL 260853Z AUTO 02009KT 10SM CLR 22/07 A3008 RMK AO2 SLP169 T02170072 53004
cycle: 9

Station Type Date Time Source
KMWL TAF UTC NOAA

Error!

Example: see airport list